Okarche, Oklahoma
Current Conditions -  °F | °C
As of 5:15 PM on Thursday 27 Nov 2014 (Local Time) from KRQO Reporting Station
Clear Clear  
Wind Chill: 41°   Ceiling: Unl
Heat Index: 46°   Visibility: NA
Dew Point: 23°   Wind: 13mph
Humidity: 40%   Direction: 190°S
Pressure: 30.31"   Gusts: NA
Location:  35.73°N, 97.98°W
Report Text: KRQO 272315Z AUTO 19011KT CLR 08/M05 A3031 RMK AO2 PWINO
Loading
Personal Weather Stations






























Interactive Weather Map New forecast layout! Learn more

10-Day Weather Forecast

Advertisements
Track Severe Weather on mobile